Time;durP1;ratioP1;P1;durP2;ratioP2;P2;SDS_P1;SDS_P2;PMS_P1;PMS_P2;Temp;Humidity;BMP_temperature;BMP_pressure;BME280_temperature;BME280_humidity;BME280_pressure;Samples;Min_cycle;Max_cycle;Signal;HPM_P1;HPM_P2
2021/07/15 00:00:25;;;;;;;1.73;1.63;;;16.20;99.90;;;;;;5090523;28;20609;-88
2021/07/15 00:02:53;;;;;;;1.60;1.50;;;16.20;99.90;;;;;;5090384;28;20633;-89
2021/07/15 00:05:21;;;;;;;1.70;1.60;;;16.00;99.90;;;;;;5090592;28;20651;-88
2021/07/15 00:07:49;;;;;;;1.63;1.53;;;16.10;99.90;;;;;;5090651;28;20623;-88
2021/07/15 00:10:22;;;;;;;1.30;1.30;;;16.10;99.90;;;;;;5084797;28;20617;-89
2021/07/15 00:12:52;;;;;;;1.03;1.03;;;16.20;99.90;;;;;;5084825;28;20649;-88
2021/07/15 00:15:22;;;;;;;1.20;1.10;;;16.20;99.90;;;;;;5089848;28;20624;-88
2021/07/15 00:17:49;;;;;;;0.80;0.80;;;16.20;99.90;;;;;;5090285;28;21181;-88
2021/07/15 00:20:18;;;;;;;2.00;0.70;;;16.10;99.90;;;;;;5090527;28;20631;-87
2021/07/15 00:22:45;;;;;;;0.50;0.50;;;15.90;99.90;;;;;;5090039;28;20648;-88
2021/07/15 00:25:16;;;;;;;0.93;0.60;;;15.90;99.90;;;;;;5090484;28;20624;-89
2021/07/15 00:27:43;;;;;;;0.40;0.40;;;16.00;99.90;;;;;;5090688;28;20612;-88
2021/07/15 00:30:14;;;;;;;1.10;0.33;;;16.00;99.90;;;;;;5090725;28;20631;-88
2021/07/15 00:32:41;;;;;;;0.40;0.30;;;16.10;99.90;;;;;;5090634;28;21180;-88
2021/07/15 00:35:10;;;;;;;0.50;0.50;;;16.00;99.90;;;;;;5090563;28;21195;-88
2021/07/15 00:37:38;;;;;;;0.60;0.50;;;16.00;99.90;;;;;;5090514;28;20624;-88
2021/07/15 00:40:07;;;;;;;0.50;0.40;;;16.00;99.90;;;;;;5090576;28;20604;-89
2021/07/15 00:42:34;;;;;;;0.60;0.40;;;15.90;99.90;;;;;;5090092;28;21220;-88
2021/07/15 00:45:01;;;;;;;1.70;0.40;;;16.00;99.90;;;;;;5090436;28;20621;-88
2021/07/15 00:47:29;;;;;;;0.40;0.40;;;16.00;99.90;;;;;;5090190;28;20678;-88
2021/07/15 00:49:57;;;;;;;0.40;0.40;;;15.90;99.90;;;;;;5090650;28;20906;-89
2021/07/15 00:52:24;;;;;;;1.50;0.67;;;15.90;99.90;;;;;;5090173;28;21466;-88
2021/07/15 00:54:51;;;;;;;0.30;0.20;;;15.90;99.90;;;;;;5090075;28;20612;-89
2021/07/15 00:57:19;;;;;;;0.40;0.30;;;15.80;99.90;;;;;;5085150;28;20648;-88
2021/07/15 00:59:47;;;;;;;0.30;0.30;;;15.90;99.90;;;;;;5090139;28;20612;-87
2021/07/15 01:02:14;;;;;;;0.40;0.30;;;15.80;99.90;;;;;;5089850;28;20671;-88
2021/07/15 01:04:46;;;;;;;0.40;0.30;;;15.70;99.90;;;;;;5089259;28;21168;-88
2021/07/15 01:07:16;;;;;;;0.30;0.27;;;15.60;99.90;;;;;;5090074;28;20608;-88
2021/07/15 01:09:45;;;;;;;0.87;0.43;;;15.60;99.90;;;;;;5090089;28;21262;-88
2021/07/15 01:12:33;;;;;;;1.73;0.60;;;15.70;99.90;;;;;;5084833;28;20635;-89
2021/07/15 01:15:07;;;;;;;0.40;0.40;;;15.60;99.90;;;;;;5089744;28;20634;-88
2021/07/15 01:17:48;;;;;;;0.83;0.50;;;15.60;99.90;;;;;;5088558;28;20623;-88
2021/07/15 01:20:39;;;;;;;0.83;0.43;;;15.60;99.90;;;;;;5091013;28;20657;-89
2021/07/15 01:23:29;;;;;;;0.50;0.50;;;15.70;99.90;;;;;;5092427;28;20659;-88
2021/07/15 01:26:12;;;;;;;1.57;0.60;;;15.70;99.90;;;;;;5105594;28;20616;-88
2021/07/15 01:29:03;;;;;;;5.90;0.53;;;15.70;99.90;;;;;;5096768;28;20635;-89
2021/07/15 01:31:38;;;;;;;1.40;0.40;;;15.50;99.90;;;;;;5086201;28;20623;-88
2021/07/15 01:34:09;;;;;;;0.90;0.40;;;15.50;99.90;;;;;;5080360;28;21204;-88
2021/07/15 01:36:43;;;;;;;0.67;0.40;;;15.50;99.90;;;;;;5106704;28;20623;-87
2021/07/15 01:39:13;;;;;;;4.20;0.50;;;15.70;99.90;;;;;;5114071;28;20610;-89
2021/07/15 01:41:44;;;;;;;0.83;0.30;;;15.60;99.90;;;;;;5110460;28;20761;-88
2021/07/15 01:44:15;;;;;;;0.57;0.30;;;15.70;99.90;;;;;;5111997;28;21040;-89
2021/07/15 01:46:45;;;;;;;0.50;0.40;;;15.60;99.90;;;;;;5113671;28;21164;-88
2021/07/15 01:49:14;;;;;;;2.00;0.47;;;15.60;99.90;;;;;;5113146;28;21026;-88
2021/07/15 01:51:43;;;;;;;0.40;0.30;;;15.60;99.90;;;;;;5113689;28;21213;-88
2021/07/15 01:54:12;;;;;;;0.40;0.27;;;15.50;99.90;;;;;;5113660;28;20719;-88
2021/07/15 01:56:45;;;;;;;0.40;0.30;;;15.40;99.90;;;;;;5095674;28;20627;-88
2021/07/15 01:59:19;;;;;;;0.40;0.30;;;15.30;99.90;;;;;;5107824;28;20622;-88
2021/07/15 02:01:52;;;;;;;0.30;0.30;;;15.40;99.90;;;;;;5113195;28;20623;-88
2021/07/15 02:04:20;;;;;;;0.30;0.30;;;15.30;99.90;;;;;;5113242;28;20611;-88
2021/07/15 02:06:53;;;;;;;0.40;0.40;;;15.30;99.90;;;;;;5113449;28;20673;-88
2021/07/15 02:09:23;;;;;;;0.60;0.43;;;15.30;99.90;;;;;;5113153;28;21540;-88
2021/07/15 02:11:54;;;;;;;1.43;0.47;;;15.30;99.90;;;;;;5111634;28;21189;-89
2021/07/15 02:14:26;;;;;;;2.10;0.50;;;15.30;99.90;;;;;;5109653;28;21206;-88
2021/07/15 02:17:01;;;;;;;0.90;0.70;;;15.40;99.90;;;;;;5112671;28;20639;-89
2021/07/15 02:19:31;;;;;;;1.10;0.50;;;15.40;99.90;;;;;;5113365;28;20619;-90
2021/07/15 02:21:59;;;;;;;0.40;0.30;;;15.30;99.90;;;;;;5112908;28;20659;-89
2021/07/15 02:24:30;;;;;;;0.57;0.57;;;15.30;99.90;;;;;;5112400;28;20618;-89
2021/07/15 02:26:58;;;;;;;0.60;0.47;;;15.30;99.90;;;;;;5108102;28;20635;-89
2021/07/15 02:29:27;;;;;;;0.63;0.60;;;15.30;99.90;;;;;;5112901;28;20611;-89
2021/07/15 02:32:00;;;;;;;1.80;0.50;;;15.30;99.90;;;;;;5107441;28;20613;-89
2021/07/15 02:34:34;;;;;;;0.70;0.60;;;15.20;99.90;;;;;;5092265;28;20673;-89
2021/07/15 02:37:06;;;;;;;1.10;1.00;;;15.20;99.90;;;;;;5092164;28;20624;-89
2021/07/15 02:39:34;;;;;;;0.63;0.63;;;15.10;99.90;;;;;;5091943;28;20626;-88
2021/07/15 02:42:04;;;;;;;3.90;1.57;;;15.30;99.90;;;;;;5092510;28;20616;-89
2021/07/15 02:44:35;;;;;;;1.13;1.13;;;15.10;99.90;;;;;;5086689;28;21665;-89
2021/07/15 02:47:06;;;;;;;2.33;1.73;;;15.10;99.90;;;;;;5092088;28;21222;-89
2021/07/15 02:49:34;;;;;;;2.60;2.40;;;15.10;99.90;;;;;;5091860;28;20612;-89
2021/07/15 02:52:01;;;;;;;1.83;1.73;;;15.10;99.90;;;;;;5091816;28;21187;-89
2021/07/15 02:54:28;;;;;;;1.30;1.20;;;15.00;99.90;;;;;;5083673;28;20612;-89
2021/07/15 02:57:05;;;;;;;0.80;0.80;;;15.10;99.90;;;;;;5090718;28;21164;-89
2021/07/15 02:59:40;;;;;;;2.13;1.20;;;15.10;99.90;;;;;;5091990;28;20665;-89
2021/07/15 03:02:19;;;;;;;2.30;1.50;;;15.20;99.90;;;;;;5091471;28;20631;-89
2021/07/15 03:04:57;;;;;;;1.30;1.27;;;15.30;99.90;;;;;;5091644;28;21200;-89
2021/07/15 03:07:26;;;;;;;1.50;1.40;;;15.20;99.90;;;;;;5091871;28;21192;-88
2021/07/15 03:09:54;;;;;;;1.10;1.00;;;15.20;99.90;;;;;;5091859;28;20962;-89
2021/07/15 03:12:23;;;;;;;0.80;0.80;;;15.30;99.90;;;;;;5091869;28;21169;-89
2021/07/15 03:14:54;;;;;;;0.90;0.90;;;15.20;99.90;;;;;;5091337;28;20612;-90
2021/07/15 03:17:28;;;;;;;1.37;1.30;;;15.10;99.90;;;;;;5091188;28;20704;-90
2021/07/15 03:19:58;;;;;;;0.93;0.70;;;15.10;99.90;;;;;;5090581;28;20720;-89
2021/07/15 03:22:27;;;;;;;0.40;0.40;;;15.10;99.90;;;;;;5088206;28;20670;-89
2021/07/15 03:24:59;;;;;;;0.40;0.37;;;15.20;99.90;;;;;;5090849;28;20628;-89
2021/07/15 03:27:28;;;;;;;1.80;0.73;;;15.20;99.90;;;;;;5091628;28;20615;-89
2021/07/15 03:29:58;;;;;;;0.90;0.40;;;15.20;99.90;;;;;;5091450;28;20608;-89
2021/07/15 03:32:27;;;;;;;1.50;0.53;;;15.10;99.90;;;;;;5100809;28;20607;-89
2021/07/15 03:34:55;;;;;;;0.40;0.30;;;15.10;99.90;;;;;;5111638;28;20618;-89
2021/07/15 03:37:22;;;;;;;0.43;0.30;;;15.10;99.90;;;;;;5111235;28;21159;-90
2021/07/15 03:39:51;;;;;;;0.70;0.70;;;15.10;99.90;;;;;;5111440;28;20739;-89
2021/07/15 03:42:21;;;;;;;0.63;0.33;;;15.20;99.90;;;;;;5111726;28;20639;-89
2021/07/15 03:44:50;;;;;;;0.53;0.53;;;15.30;99.90;;;;;;5111325;28;20630;-89
2021/07/15 03:47:17;;;;;;;0.57;0.30;;;15.30;99.90;;;;;;5111473;28;20614;-90
2021/07/15 03:49:49;;;;;;;0.40;0.30;;;15.30;99.90;;;;;;5110846;28;20684;-89
2021/07/15 03:52:18;;;;;;;0.40;0.30;;;15.30;99.90;;;;;;5111258;28;21180;-89
2021/07/15 03:54:46;;;;;;;2.67;0.50;;;15.20;99.90;;;;;;5110767;28;20623;-90
2021/07/15 03:57:18;;;;;;;0.50;0.20;;;15.30;99.90;;;;;;5092230;28;20616;-89
2021/07/15 03:59:47;;;;;;;0.40;0.30;;;15.30;99.90;;;;;;5090907;28;20620;-89
2021/07/15 04:02:18;;;;;;;1.23;0.30;;;15.40;99.90;;;;;;5090971;28;20998;-88
2021/07/15 04:04:51;;;;;;;1.23;0.50;;;15.30;99.90;;;;;;5090032;28;20620;-89
2021/07/15 04:07:20;;;;;;;2.23;0.40;;;15.20;99.90;;;;;;5090859;28;20620;-88
2021/07/15 04:09:49;;;;;;;0.40;0.40;;;15.40;99.90;;;;;;5090493;28;20607;-89
2021/07/15 04:12:20;;;;;;;0.60;0.50;;;15.40;99.90;;;;;;5089774;28;20632;-89
2021/07/15 04:15:04;;;;;;;1.07;0.50;;;15.30;99.90;;;;;;5090134;28;20628;-89
2021/07/15 04:17:35;;;;;;;0.40;0.40;;;15.40;99.90;;;;;;5090331;28;20643;-89
2021/07/15 04:20:05;;;;;;;0.70;0.60;;;15.40;99.90;;;;;;5090546;28;20612;-89
2021/07/15 04:22:35;;;;;;;0.60;0.60;;;15.50;99.90;;;;;;5085716;28;20639;-89
2021/07/15 04:25:03;;;;;;;1.23;0.40;;;15.50;99.90;;;;;;5089816;28;20612;-90
2021/07/15 04:27:31;;;;;;;1.50;1.40;;;15.60;99.90;;;;;;5090638;28;20612;-88
2021/07/15 04:30:03;;;;;;;1.80;1.23;;;15.60;99.90;;;;;;5095457;28;20607;-88
2021/07/15 04:32:34;;;;;;;1.03;1.03;;;15.60;99.90;;;;;;5090207;28;20612;-89
2021/07/15 04:35:04;;;;;;;0.90;0.90;;;15.60;99.90;;;;;;5100635;28;20620;-89
2021/07/15 04:37:31;;;;;;;1.00;0.90;;;15.60;99.90;;;;;;5090931;28;20644;-88
2021/07/15 04:39:59;;;;;;;4.20;1.10;;;15.60;99.90;;;;;;5089682;28;20604;-89
2021/07/15 04:42:27;;;;;;;3.37;1.70;;;15.70;99.90;;;;;;5089322;28;20623;-90
2021/07/15 04:44:57;;;;;;;2.00;1.90;;;15.60;99.90;;;;;;5106704;28;21282;-89
2021/07/15 04:47:25;;;;;;;2.60;2.27;;;15.60;99.90;;;;;;5110912;28;20620;-89
2021/07/15 04:49:52;;;;;;;2.20;1.03;;;15.50;99.90;;;;;;5111339;28;20599;-88
2021/07/15 04:52:23;;;;;;;2.20;1.60;;;15.60;99.90;;;;;;5110549;28;21389;-88
2021/07/15 04:54:52;;;;;;;1.23;1.07;;;15.60;99.90;;;;;;5110446;28;20611;-89
2021/07/15 04:57:22;;;;;;;0.90;0.90;;;15.70;99.90;;;;;;5090669;28;20630;-89
2021/07/15 04:59:49;;;;;;;0.97;0.87;;;15.70;99.90;;;;;;5090284;28;20639;-89
2021/07/15 05:02:17;;;;;;;2.00;0.93;;;15.80;99.90;;;;;;5092344;28;20608;-89
2021/07/15 05:04:43;;;;;;;0.60;0.60;;;15.80;99.90;;;;;;5093474;28;20658;-87
2021/07/15 05:07:11;;;;;;;5.23;1.03;;;15.80;99.90;;;;;;5093672;28;20620;-89
2021/07/15 05:09:39;;;;;;;0.70;0.70;;;15.80;99.90;;;;;;5093771;28;20616;-89
2021/07/15 05:12:08;;;;;;;0.50;0.50;;;15.70;99.90;;;;;;5093627;28;20613;-89
2021/07/15 05:14:40;;;;;;;0.50;0.43;;;15.80;99.90;;;;;;5093019;28;20624;-88
2021/07/15 05:17:08;;;;;;;0.43;0.43;;;15.70;99.90;;;;;;5093066;28;20600;-88
2021/07/15 05:19:35;;;;;;;0.63;0.47;;;15.80;99.90;;;;;;5093013;28;20966;-88
2021/07/15 05:22:02;;;;;;;0.50;0.40;;;15.70;99.90;;;;;;5093598;28;20597;-88
2021/07/15 05:24:29;;;;;;;0.40;0.40;;;15.70;99.90;;;;;;5092827;28;21228;-87
2021/07/15 05:26:57;;;;;;;0.40;0.30;;;15.70;99.90;;;;;;5088528;28;20604;-88
2021/07/15 05:29:25;;;;;;;0.60;0.37;;;15.80;99.90;;;;;;5092173;28;20687;-88
2021/07/15 05:31:55;;;;;;;0.63;0.30;;;15.80;99.90;;;;;;5105136;28;20635;-86
2021/07/15 05:34:24;;;;;;;0.40;0.37;;;15.80;99.90;;;;;;5102361;28;20608;-88
2021/07/15 05:36:51;;;;;;;0.97;0.50;;;15.80;99.90;;;;;;5113023;28;20622;-88
2021/07/15 05:39:18;;;;;;;0.50;0.50;;;15.80;99.90;;;;;;5112683;28;20605;-88
2021/07/15 05:41:47;;;;;;;3.60;0.60;;;15.80;99.90;;;;;;5099770;28;20630;-89
2021/07/15 05:44:15;;;;;;;5.10;0.43;;;15.70;99.90;;;;;;5103342;28;20673;-88
2021/07/15 05:46:42;;;;;;;1.63;0.40;;;15.70;99.90;;;;;;5105340;28;20961;-88
2021/07/15 05:49:09;;;;;;;0.40;0.40;;;15.80;99.90;;;;;;5111183;28;20627;-88
2021/07/15 05:51:38;;;;;;;4.73;2.30;;;15.90;99.90;;;;;;5110750;28;20664;-88
2021/07/15 05:54:05;;;;;;;0.50;0.50;;;15.90;99.90;;;;;;5102878;28;20615;-87
2021/07/15 05:56:32;;;;;;;0.53;0.40;;;15.90;99.90;;;;;;5108177;28;21146;-89
2021/07/15 05:58:59;;;;;;;6.10;0.50;;;16.00;99.90;;;;;;5103569;28;20636;-88
2021/07/15 06:01:28;;;;;;;0.30;0.30;;;16.00;99.90;;;;;;5105501;28;21153;-88
2021/07/15 06:03:55;;;;;;;0.40;0.37;;;16.10;99.90;;;;;;5103771;28;20647;-88
2021/07/15 06:06:22;;;;;;;0.70;0.30;;;16.00;99.90;;;;;;5105672;28;20622;-88
2021/07/15 06:08:49;;;;;;;0.67;0.40;;;16.00;99.90;;;;;;5104813;28;20616;-88
2021/07/15 06:11:16;;;;;;;0.63;0.30;;;16.00;99.90;;;;;;5103454;28;21236;-88
2021/07/15 06:13:43;;;;;;;0.73;0.70;;;16.00;99.90;;;;;;5100017;28;20621;-89
2021/07/15 06:16:10;;;;;;;0.40;0.30;;;16.00;99.90;;;;;;5102158;28;20623;-88
2021/07/15 06:18:41;;;;;;;2.30;0.60;;;16.20;99.90;;;;;;5102332;28;20966;-89
2021/07/15 06:21:08;;;;;;;0.77;0.40;;;16.30;99.90;;;;;;5101789;28;20601;-88
2021/07/15 06:23:35;;;;;;;1.00;0.30;;;16.30;99.90;;;;;;5107874;28;21205;-88
2021/07/15 06:26:02;;;;;;;1.43;0.40;;;16.20;99.90;;;;;;5112592;28;20665;-88
2021/07/15 06:28:30;;;;;;;0.40;0.40;;;16.10;99.90;;;;;;5113967;28;20650;-88
2021/07/15 06:30:57;;;;;;;0.83;0.50;;;16.10;99.90;;;;;;5112980;28;20610;-89
2021/07/15 06:33:24;;;;;;;3.60;0.97;;;16.20;99.90;;;;;;5096050;28;21010;-89
2021/07/15 06:35:53;;;;;;;0.53;0.30;;;16.20;99.90;;;;;;5101919;28;21249;-88
2021/07/15 06:38:20;;;;;;;0.47;0.47;;;16.40;99.90;;;;;;5098919;28;20642;-87
2021/07/15 06:40:50;;;;;;;0.40;0.40;;;16.30;99.90;;;;;;5091915;28;20614;-87
2021/07/15 06:43:17;;;;;;;0.50;0.50;;;16.30;99.90;;;;;;5092018;28;20615;-86
2021/07/15 06:45:44;;;;;;;0.33;0.33;;;16.30;99.90;;;;;;5091889;28;20668;-86
2021/07/15 06:48:11;;;;;;;1.53;0.40;;;16.30;99.90;;;;;;5095582;28;20676;-86
2021/07/15 06:50:38;;;;;;;0.70;0.50;;;16.20;99.90;;;;;;5092230;28;20615;-87
2021/07/15 06:53:06;;;;;;;0.83;0.60;;;16.20;99.90;;;;;;5092105;28;20615;-87
2021/07/15 06:55:33;;;;;;;0.60;0.40;;;16.30;99.90;;;;;;5091772;28;21214;-87
2021/07/15 06:58:00;;;;;;;0.60;0.60;;;16.40;99.90;;;;;;5092117;28;20674;-87
2021/07/15 07:00:27;;;;;;;1.40;0.43;;;16.40;99.90;;;;;;5092060;28;21116;-88
2021/07/15 07:02:54;;;;;;;0.53;0.50;;;16.40;99.90;;;;;;5092662;28;20717;-88
2021/07/15 07:05:21;;;;;;;0.63;0.63;;;16.40;99.90;;;;;;5091655;28;20673;-86
2021/07/15 07:07:48;;;;;;;0.97;0.70;;;16.30;99.90;;;;;;5091224;28;20610;-86
2021/07/15 07:10:17;;;;;;;1.10;0.80;;;16.30;99.90;;;;;;5091725;28;20610;-86
2021/07/15 07:12:45;;;;;;;1.23;0.60;;;16.20;99.90;;;;;;5097825;28;20612;-87
2021/07/15 07:15:15;;;;;;;5.90;0.70;;;16.30;99.90;;;;;;5108461;28;20657;-87
2021/07/15 07:17:42;;;;;;;2.27;1.27;;;16.30;99.90;;;;;;5111465;28;20722;-87
2021/07/15 07:20:11;;;;;;;2.70;1.00;;;16.40;99.90;;;;;;5111704;28;20676;-87
2021/07/15 07:22:39;;;;;;;2.27;0.77;;;16.40;99.90;;;;;;5102960;28;20676;-87
2021/07/15 07:25:08;;;;;;;0.70;0.50;;;16.60;99.90;;;;;;5090139;28;20688;-87
2021/07/15 07:27:37;;;;;;;0.73;0.50;;;16.80;99.90;;;;;;5091570;28;20606;-88
2021/07/15 07:30:05;;;;;;;1.40;0.70;;;16.90;99.90;;;;;;5091438;28;20632;-87
2021/07/15 07:32:33;;;;;;;0.40;0.40;;;16.90;99.90;;;;;;5101907;28;20687;-88
2021/07/15 07:35:00;;;;;;;1.07;0.50;;;16.70;99.90;;;;;;5111780;28;20606;-88
2021/07/15 07:37:28;;;;;;;2.90;0.50;;;16.70;99.90;;;;;;5111697;28;20616;-89
2021/07/15 07:39:55;;;;;;;0.73;0.70;;;16.90;99.90;;;;;;5111419;28;20671;-89
2021/07/15 07:42:23;;;;;;;0.83;0.60;;;17.10;99.90;;;;;;5112016;28;20622;-87
2021/07/15 07:44:51;;;;;;;0.60;0.40;;;17.20;99.90;;;;;;5112000;28;20637;-90
2021/07/15 07:47:18;;;;;;;0.80;0.70;;;17.40;99.90;;;;;;5111762;28;20615;-90
2021/07/15 07:49:52;;;;;;;2.10;0.47;;;17.40;99.90;;;;;;5110264;28;21183;-91
2021/07/15 07:52:19;;;;;;;0.50;0.50;;;17.30;99.90;;;;;;5071904;28;20627;-89
2021/07/15 07:54:46;;;;;;;2.03;0.57;;;17.10;99.90;;;;;;5071386;28;20615;-90
2021/07/15 07:57:13;;;;;;;0.77;0.40;;;17.10;99.90;;;;;;5091069;28;21007;-90
2021/07/15 07:59:40;;;;;;;1.23;0.50;;;17.20;99.90;;;;;;5091673;28;21188;-89
2021/07/15 08:02:10;;;;;;;1.00;0.60;;;17.30;99.90;;;;;;5091865;28;20623;-89
2021/07/15 08:04:37;;;;;;;0.73;0.40;;;17.40;99.90;;;;;;5110567;28;20658;-89
2021/07/15 08:07:08;;;;;;;0.60;0.40;;;17.20;99.90;;;;;;5111940;28;20701;-89
2021/07/15 08:09:42;;;;;;;0.37;0.30;;;17.30;99.90;;;;;;5104353;28;21035;-89
2021/07/15 08:12:13;;;;;;;0.50;0.30;;;17.20;99.90;;;;;;5099696;28;20619;-90
2021/07/15 08:14:41;;;;;;;0.97;0.50;;;17.30;99.90;;;;;;5100443;28;20618;-89
2021/07/15 08:17:09;;;;;;;0.40;0.37;;;17.30;99.90;;;;;;5096243;28;20629;-90
2021/07/15 08:19:40;;;;;;;0.70;0.40;;;17.30;99.90;;;;;;5091240;28;20719;-89
2021/07/15 08:22:07;;;;;;;0.50;0.37;;;17.50;99.90;;;;;;5091489;28;20723;-89
2021/07/15 08:24:35;;;;;;;0.40;0.40;;;17.50;99.90;;;;;;5091579;28;20765;-90
2021/07/15 08:27:02;;;;;;;0.40;0.40;;;17.70;99.90;;;;;;5091500;28;20632;-89
2021/07/15 08:29:32;;;;;;;0.60;0.33;;;17.90;99.90;;;;;;5109991;28;20624;-90
2021/07/15 08:31:59;;;;;;;0.50;0.30;;;17.80;99.90;;;;;;5106399;28;20632;-90
2021/07/15 08:34:28;;;;;;;0.47;0.40;;;17.70;99.90;;;;;;5090234;28;21145;-90
2021/07/15 08:36:55;;;;;;;0.70;0.70;;;17.50;99.90;;;;;;5092822;28;20651;-89
2021/07/15 08:39:22;;;;;;;0.87;0.50;;;17.50;99.90;;;;;;5095882;28;20651;-91
2021/07/15 08:41:50;;;;;;;0.40;0.40;;;17.60;99.90;;;;;;5111735;28;20670;-88
2021/07/15 08:44:26;;;;;;;0.90;0.67;;;17.70;99.90;;;;;;5114845;28;20652;-89
2021/07/15 08:46:54;;;;;;;0.40;0.40;;;17.70;99.90;;;;;;5115240;28;20663;-90
2021/07/15 08:49:21;;;;;;;0.53;0.40;;;17.90;99.90;;;;;;5115090;28;20618;-88
2021/07/15 08:51:50;;;;;;;3.77;0.70;;;18.00;99.90;;;;;;5111959;28;20615;-88
2021/07/15 08:54:18;;;;;;;1.37;0.60;;;17.90;99.90;;;;;;5093800;28;20632;-88
2021/07/15 08:56:47;;;;;;;1.07;0.47;;;17.80;99.90;;;;;;5094503;28;21183;-88
2021/07/15 08:59:18;;;;;;;0.83;0.43;;;17.90;99.90;;;;;;5094903;28;20658;-89
2021/07/15 09:01:47;;;;;;;0.50;0.50;;;17.80;99.90;;;;;;5094895;28;20620;-90
2021/07/15 09:04:20;;;;;;;3.30;0.80;;;17.90;99.90;;;;;;5115032;28;20643;-88
2021/07/15 09:06:47;;;;;;;0.90;0.60;;;17.90;99.90;;;;;;5098396;28;20638;-88
2021/07/15 09:09:16;;;;;;;0.60;0.53;;;17.80;99.90;;;;;;5094518;28;20624;-90
2021/07/15 09:11:45;;;;;;;0.50;0.50;;;17.80;99.90;;;;;;5094503;28;20719;-88
2021/07/15 09:14:17;;;;;;;1.90;0.93;;;17.70;99.90;;;;;;5093908;28;20701;-88
2021/07/15 09:16:48;;;;;;;0.40;0.40;;;17.70;99.90;;;;;;5081522;28;20967;-88
2021/07/15 09:19:17;;;;;;;1.47;0.90;;;17.80;99.90;;;;;;5094002;28;20709;-89
2021/07/15 09:21:45;;;;;;;0.70;0.43;;;17.90;99.90;;;;;;5094158;28;20632;-89
2021/07/15 09:24:32;;;;;;;2.00;0.60;;;18.20;99.90;;;;;;5094376;28;21090;-89
2021/07/15 09:27:10;;;;;;;0.70;0.50;;;18.20;99.90;;;;;;5093729;28;21181;-89
2021/07/15 09:29:42;;;;;;;0.40;0.40;;;17.90;99.90;;;;;;5087104;28;21262;-89
2021/07/15 09:32:14;;;;;;;0.40;0.40;;;18.20;99.90;;;;;;5103433;28;20648;-89
2021/07/15 09:34:46;;;;;;;0.70;0.70;;;18.20;99.90;;;;;;5107852;28;20623;-89
2021/07/15 09:37:16;;;;;;;1.13;0.60;;;18.10;99.90;;;;;;5114170;28;20607;-89
2021/07/15 09:39:49;;;;;;;0.40;0.40;;;17.90;99.90;;;;;;5114313;28;20634;-88
2021/07/15 09:42:28;;;;;;;0.40;0.30;;;17.80;99.90;;;;;;5115240;28;20630;-91
2021/07/15 09:44:57;;;;;;;0.50;0.40;;;17.80;99.90;;;;;;5094127;28;21020;-90
2021/07/15 09:47:42;;;;;;;0.40;0.30;;;18.10;99.90;;;;;;5094028;28;20632;-90
2021/07/15 09:50:33;;;;;;;1.30;0.50;;;18.40;99.90;;;;;;5095444;28;20735;-90
2021/07/15 09:53:15;;;;;;;0.80;0.60;;;18.40;99.90;;;;;;5093963;28;20635;-88
2021/07/15 09:56:08;;;;;;;0.50;0.50;;;18.50;99.90;;;;;;5093968;28;20992;-90
2021/07/15 09:58:51;;;;;;;2.63;0.60;;;18.60;99.90;;;;;;5104203;28;21387;-89
2021/07/15 10:01:20;;;;;;;0.63;0.40;;;18.60;99.90;;;;;;5088026;28;20621;-89
2021/07/15 10:03:50;;;;;;;0.70;0.70;;;18.30;99.90;;;;;;5073050;28;20613;-91
2021/07/15 10:06:19;;;;;;;0.40;0.40;;;18.10;99.90;;;;;;5089102;28;20659;-89
2021/07/15 10:08:53;;;;;;;0.50;0.30;;;18.40;99.90;;;;;;5089617;28;20962;-89
2021/07/15 10:11:26;;;;;;;0.50;0.40;;;18.40;99.90;;;;;;5093480;28;21028;-90
2021/07/15 10:14:06;;;;;;;0.43;0.40;;;18.30;99.90;;;;;;5112766;28;20646;-92
2021/07/15 10:16:38;;;;;;;0.60;0.60;;;18.70;99.90;;;;;;5101771;28;21044;-88
2021/07/15 10:19:26;;;;;;;0.70;0.60;;;19.00;99.90;;;;;;5093651;28;20622;-90
2021/07/15 10:22:04;;;;;;;2.07;0.77;;;19.30;99.90;;;;;;5107767;28;20639;-90
2021/07/15 10:24:33;;;;;;;2.10;0.90;;;19.40;99.90;;;;;;5113363;28;20643;-91
2021/07/15 10:33:51;;;;;;;1.80;0.87;;;19.00;99.90;;;;;;5067942;28;20863;-92
2021/07/15 10:36:21;;;;;;;0.70;0.70;;;18.90;99.90;;;;;;5092800;28;20624;-89
2021/07/15 10:41:33;;;;;;;0.80;0.80;;;18.20;99.90;;;;;;5090988;28;20633;-89
2021/07/15 10:44:05;;;;;;;0.53;0.53;;;18.00;99.90;;;;;;5092183;28;21257;-89
2021/07/15 10:46:44;;;;;;;0.80;0.80;;;17.70;99.90;;;;;;5102988;28;20651;-88
2021/07/15 10:49:15;;;;;;;0.87;0.70;;;17.40;99.90;;;;;;5107195;28;20719;-88
2021/07/15 10:52:01;;;;;;;0.90;0.90;;;17.40;99.90;;;;;;5112844;28;20622;-90
2021/07/15 10:54:32;;;;;;;0.97;0.70;;;17.60;99.90;;;;;;5112391;28;20622;-89
2021/07/15 10:57:03;;;;;;;2.83;0.90;;;17.60;99.90;;;;;;5112731;28;20616;-90
2021/07/15 10:59:35;;;;;;;0.77;0.77;;;17.40;99.90;;;;;;5089248;28;20611;-89
2021/07/15 11:02:23;;;;;;;2.70;0.77;;;17.50;99.90;;;;;;5082954;28;20619;-89
2021/07/15 11:04:51;;;;;;;0.90;0.77;;;17.70;99.90;;;;;;5092568;28;20733;-89
2021/07/15 11:07:24;;;;;;;1.40;1.30;;;17.70;99.90;;;;;;5093220;28;20679;-89
2021/07/15 11:09:52;;;;;;;1.00;0.90;;;17.90;99.90;;;;;;5093597;28;20732;-89
2021/07/15 11:12:32;;;;;;;1.27;1.17;;;18.20;99.90;;;;;;5106957;28;20632;-90
2021/07/15 11:15:09;;;;;;;1.27;1.10;;;18.30;99.90;;;;;;5093276;28;20624;-90
2021/07/15 11:17:46;;;;;;;1.63;1.53;;;18.60;99.90;;;;;;5093379;28;20620;-91
2021/07/15 11:20:33;;;;;;;1.77;1.27;;;19.10;99.90;;;;;;5090455;28;20635;-94
2021/07/15 11:23:02;;;;;;;0.73;0.73;;;19.00;99.90;;;;;;5090124;28;20623;-90
2021/07/15 11:25:41;;;;;;;0.97;0.80;;;18.80;99.90;;;;;;5095607;28;21002;-90
2021/07/15 11:28:19;;;;;;;0.60;0.60;;;19.00;99.90;;;;;;5093709;28;20623;-90
2021/07/15 11:30:52;;;;;;;0.67;0.67;;;18.90;99.90;;;;;;5094048;28;20975;-91
2021/07/15 11:33:39;;;;;;;1.10;0.80;;;18.80;99.90;;;;;;5101512;28;20736;-90
2021/07/15 11:40:04;;;;;;;1.03;1.00;;;19.70;99.90;;;;;;5040912;28;20678;-91
2021/07/15 11:42:34;;;;;;;1.23;0.90;;;19.90;99.90;;;;;;5070317;28;20618;-89
2021/07/15 11:45:03;;;;;;;0.50;0.50;;;19.70;99.90;;;;;;5073361;28;20653;-88
2021/07/15 11:47:49;;;;;;;1.20;0.63;;;19.80;99.90;;;;;;5090984;28;20668;-90
2021/07/15 11:50:39;;;;;;;1.00;1.00;;;19.30;99.90;;;;;;5098891;28;21256;-90
2021/07/15 11:53:18;;;;;;;1.77;0.87;;;19.10;99.90;;;;;;5091356;28;20611;-89
2021/07/15 11:55:47;;;;;;;3.07;0.80;;;19.00;99.90;;;;;;5090585;28;20656;-89
2021/07/15 11:58:45;;;;;;;1.73;1.17;;;18.80;99.90;;;;;;5090421;28;20640;-89
2021/07/15 12:01:20;;;;;;;1.63;1.00;;;18.80;99.90;;;;;;5078455;28;20608;-89
2021/07/15 12:03:57;;;;;;;2.40;1.10;;;18.80;99.90;;;;;;5090248;28;20620;-89
2021/07/15 12:06:26;;;;;;;1.53;0.97;;;18.80;99.90;;;;;;5090632;28;20657;-89
2021/07/15 12:08:53;;;;;;;1.00;0.60;;;18.90;99.90;;;;;;5091362;28;20612;-87
2021/07/15 12:11:24;;;;;;;0.90;0.90;;;18.80;99.90;;;;;;5093879;28;20747;-88
2021/07/15 12:13:52;;;;;;;0.80;0.80;;;18.70;99.90;;;;;;5097595;28;20621;-91
2021/07/15 12:16:23;;;;;;;0.80;0.80;;;18.60;99.90;;;;;;5089440;28;20678;-88
2021/07/15 12:18:51;;;;;;;1.10;0.60;;;18.70;99.90;;;;;;5090111;28;20731;-90
2021/07/15 12:21:20;;;;;;;0.97;0.87;;;18.90;99.90;;;;;;5089672;28;20625;-89
2021/07/15 12:23:50;;;;;;;0.80;0.80;;;18.90;99.90;;;;;;5093354;28;20612;-89
2021/07/15 12:26:22;;;;;;;0.77;0.77;;;18.90;99.90;;;;;;5096627;28;20688;-89
2021/07/15 12:28:50;;;;;;;0.83;0.83;;;18.80;99.90;;;;;;5091500;28;20620;-89
2021/07/15 12:31:19;;;;;;;1.13;0.73;;;18.80;99.90;;;;;;5090655;28;21036;-89
2021/07/15 12:33:48;;;;;;;0.97;0.70;;;18.90;99.90;;;;;;5091234;28;20648;-89
2021/07/15 12:36:17;;;;;;;0.67;0.67;;;18.80;99.90;;;;;;5090941;28;20654;-88
2021/07/15 12:38:46;;;;;;;0.70;0.60;;;18.70;99.90;;;;;;5104500;28;20615;-89
2021/07/15 12:41:17;;;;;;;0.83;0.80;;;18.80;99.90;;;;;;5110723;28;20620;-91
2021/07/15 12:43:51;;;;;;;1.13;1.03;;;18.90;99.90;;;;;;5111268;28;20623;-90
2021/07/15 12:46:20;;;;;;;2.70;1.73;;;18.80;99.90;;;;;;5110833;28;20655;-89
2021/07/15 12:48:50;;;;;;;0.60;0.60;;;18.80;99.90;;;;;;5095077;28;20621;-89
2021/07/15 12:51:21;;;;;;;1.10;0.80;;;18.80;99.90;;;;;;5089988;28;20627;-91
2021/07/15 12:53:53;;;;;;;2.10;1.23;;;19.00;99.90;;;;;;5090309;28;21076;-90
2021/07/15 12:56:30;;;;;;;0.80;0.80;;;19.00;99.90;;;;;;5091027;28;20631;-89
2021/07/15 12:58:59;;;;;;;2.20;0.83;;;19.00;99.90;;;;;;5090248;28;20623;-89
2021/07/15 13:01:26;;;;;;;1.00;1.00;;;19.00;99.90;;;;;;5090763;28;20615;-90
2021/07/15 13:04:06;;;;;;;0.77;0.77;;;19.10;99.90;;;;;;5090391;28;20635;-91
2021/07/15 13:06:35;;;;;;;0.87;0.87;;;19.00;99.90;;;;;;5090332;28;21263;-89
2021/07/15 13:09:24;;;;;;;1.90;1.10;;;19.20;99.90;;;;;;5091924;28;20601;-91
2021/07/15 13:14:38;;;;;;;0.80;0.80;;;19.10;99.90;;;;;;5045300;28;20633;-88
2021/07/15 13:17:08;;;;;;;1.40;1.30;;;19.20;99.90;;;;;;5090893;28;20675;-90
2021/07/15 13:19:42;;;;;;;1.10;1.10;;;19.20;99.90;;;;;;5090462;28;20636;-92
2021/07/15 13:22:14;;;;;;;1.50;1.40;;;19.20;99.90;;;;;;5091481;28;20616;-89